Latest Coastal Weather Observations for Charles Point

IDD60701

Issued at 12:11 am CST Sunday 1 February 2015 (issued every 10 minutes, with the page automatically refreshed every 10 minutes)

About coastal observations | Map of coastal stations | Coastal observations for NT | Marine services | Other Formats
Station Details ID: 014031 Name: CHARLES POINT Lat: -12.39 Lon: 130.63 Height: 14.0 m
Data from the previous 72 hours. | See also: Recent months for locations in Northern Territory
Date/Time
CST
Temp

°C
Wind Pressure Rain
since 9am
mm
Weather Cloud Vis
km
Sea
Height
m
Swell
Dir
 
Speed
knots
Gust
knots
hPa Trend Height
m
Period
s
Dir
01/12:00am 28.4 WSW 3 6 1008.5 - 0.2 - - - - - - -
 
Date/Time
CST
Temp

°C
Wind Pressure Rain
since 9am
mm
Weather Cloud Vis
km
Sea
Height
m
Swell
Dir
 
Speed
knots
Gust
knots
hPa Trend Height
m
Period
s
Dir
31/11:30pm 28.4 WSW 3 6 1008.7 - 0.2 - - - - - - -
31/11:00pm 28.4 WSW 3 6 1008.7 - 0.2 - - - - - - -
31/10:30pm 28.5 WSW 3 5 1008.9 - 0.2 - - - - - - -
31/10:00pm 28.6 W 5 10 1008.6 - 0.2 - - - - - - -
31/09:30pm 28.6 W 4 8 1008.5 - 0.2 - - - - - - -
31/09:00pm 28.6 WSW 4 8 1008.1 - 0.2 - - - - - - -
31/08:30pm 28.7 WSW 5 9 1007.7 - 0.2 - - - - - - -
31/08:00pm 28.6 WSW 4 8 1007.0 - 0.2 - - - - - - -
31/07:30pm 28.6 WSW 4 8 1006.6 - 0.2 - - - - - - -
31/07:00pm 28.7 W 4 8 1006.6 - 0.2 - - - - - - -
31/06:30pm 28.9 WSW 4 8 1006.1 - 0.2 - - - - - - -
31/06:00pm 29.3 WSW 5 9 1006.1 - 0.2 - - - - - - -
31/05:30pm 29.7 WSW 6 11 1006.0 - 0.2 - - - - - - -
31/05:00pm 29.9 WSW 6 14 1005.9 - 0.2 - - - - - - -
31/04:30pm 30.6 WSW 6 15 1006.1 - 0.2 - - - - - - -
31/04:00pm 30.2 W 7 12 1006.1 - 0.2 - - - - - - -
31/03:30pm 31.2 W 8 16 1006.2 - 0.2 - - - - - - -
31/03:00pm 31.2 W 7 15 1006.2 - 0.2 - - - - - - -
31/02:30pm 31.5 W 8 17 1006.6 - 0.2 - - - - - - -
31/02:00pm 31.3 W 8 15 1007.0 - 0.2 - - - - - - -
31/01:30pm 30.8 W 8 14 1007.4 - 0.2 - - - - - - -
31/01:00pm 30.9 WSW 6 13 1008.0 - 0.2 - - - - - - -
31/12:30pm 31.1 W 9 15 1008.2 - 0.2 - - - - - - -
31/12:00pm 30.9 W 9 16 1008.5 - 0.2 - - - - - - -
31/11:30am 30.6 W 7 12 1008.9 - 0.2 - - - - - - -
31/11:00am 29.9 WNW 7 10 1009.2 - 0.2 - - - - - - -
31/10:30am 30.3 W 5 10 1009.2 - 0.2 - - - - - - -
31/10:00am 29.6 WNW 7 11 1009.5 - 0.2 - - - - - - -
31/09:30am 30.2 W 7 12 1009.3 - 0.0 - - - - - - -
31/09:00am 29.4 WNW 8 12 1009.2 - 9.6 - - - - - - -
31/08:30am 29.1 W 6 12 1009.0 - 9.6 - - - - - - -
31/08:00am 28.2 W 6 10 1008.7 - 9.6 - - - - - - -
31/07:30am 28.7 WNW 5 8 1008.3 - 9.4 - - - - - - -
31/07:00am 27.8 W 5 8 1007.9 - 9.4 - - - - - - -
31/06:30am 27.8 W 6 11 1007.7 - 9.4 - - - - - - -
31/06:00am 27.8 W 6 11 1007.2 - 9.4 - - - - - - -
31/05:30am 27.5 W 6 9 1007.2 - 9.4 - - - - - - -
31/05:00am 26.3 W 3 5 1007.2 - 9.4 - - - - - - -
31/04:30am 25.9 S 2 3 1007.2 - 9.4 - - - - - - -
31/04:00am 26.6 WSW 2 4 1007.1 - 9.4 - - - - - - -
31/03:30am 26.0 W 2 3 1007.1 - 9.4 - - - - - - -
31/03:00am 25.7 S 2 3 1007.4 - 9.4 - - - - - - -
31/02:30am 26.0 SSW 4 7 1007.7 - 9.4 - - - - - - -
31/02:00am 26.5 SW 3 4 1008.1 - 9.4 - - - - - - -
31/01:30am 26.4 W 2 5 1008.4 - 9.4 - - - - - - -
31/01:00am 26.0 CALM 0 0 1008.7 - 9.4 - - - - - - -
31/12:30am 25.9 SW 2 2 1009.0 - 9.4 - - - - - - -
31/12:00am 25.7 SSW 2 3 1009.2 - 9.4 - - - - - - -
 
Date/Time
CST
Temp

°C
Wind Pressure Rain
since 9am
mm
Weather Cloud Vis
km
Sea
Height
m
Swell
Dir
 
Speed
knots
Gust
knots
hPa Trend Height
m
Period
s
Dir
30/11:30pm 25.8 S 2 3 1009.4 - 9.4 - - - - - - -
30/11:00pm 26.0 SSW 4 6 1009.6 - 9.4 - - - - - - -
30/10:30pm 25.9 S 3 5 1009.5 - 8.6 - - - - - - -
30/10:00pm 26.3 SW 2 3 1009.4 - 8.6 - - - - - - -
30/09:30pm 26.1 S 3 4 1009.0 - 8.6 - - - - - - -
30/09:00pm 26.2 S 3 4 1008.7 - 8.6 - - - - - - -
30/08:30pm 26.3 SSW 3 4 1008.4 - 8.6 - - - - - - -
30/08:00pm 26.8 SSW 2 3 1007.8 - 8.6 - - - - - - -
30/07:30pm 26.6 SSW 4 6 1007.7 - 8.6 - - - - - - -
30/07:00pm 28.4 WNW 7 13 1007.2 - 8.6 - - - - - - -
30/06:30pm 28.5 WNW 12 16 1007.3 - 8.6 - - - - - - -
30/06:00pm 29.0 WNW 10 14 1006.6 - 8.6 - - - - - - -
30/05:30pm 28.8 WNW 10 15 1006.3 - 8.6 - - - - - - -
30/05:00pm 28.7 WNW 11 15 1005.8 - 8.6 - - - - - - -
30/04:30pm 27.7 W 5 9 1006.1 - 8.6 - - - - - - -
30/04:00pm 25.9 W 2 5 1006.1 - 8.6 - - - - - - -
30/03:40pm 25.9 WSW 9 29 1005.9 - 6.0 - - - - - - -
30/03:30pm 27.3 SSW 3 5 1005.9 - 4.2 - - - - - - -
30/03:00pm 28.3 WSW 3 6 1006.4 - 0.6 Rain - - - - - -
30/02:30pm 29.7 WNW 4 6 1006.6 - 0.2 - - - - - - -
30/02:00pm 29.8 WNW 3 5 1007.0 - 0.2 - - - - - - -
30/01:30pm 28.2 WNW 5 8 1007.3 - 0.2 - - - - - - -
30/01:00pm 28.3 NW 11 16 1008.0 - 0.2 - - - - - - -
30/12:30pm 28.8 WNW 6 8 1008.3 - 0.2 - - - - - - -
30/12:00pm 26.9 WNW 14 22 1009.0 - 0.2 - - - - - - -
30/11:30am 27.9 WNW 18 23 1008.9 - 0.2 - - - - - - -
30/11:26am 28.5 WNW 15 23 1008.9 - 0.2 - - - - - - -
30/11:00am 30.4 NW 10 13 1009.0 - 0.2 - - - - - - -
30/10:30am 29.9 NW 7 11 1009.0 - 0.2 - - - - - - -
30/10:00am 29.8 NW 9 12 1009.1 - 0.2 - - - - - - -
30/09:30am 29.7 NW 8 11 1009.0 - 0.0 - - - - - - -
30/09:00am 29.4 NW 8 11 1009.0 - 0.8 - - - - - - -
30/08:30am 27.2 CALM 0 0 1008.6 - 0.8 - - - - - - -
30/08:00am 26.0 CALM 0 1 1007.9 - 0.8 - - - - - - -
30/07:30am 25.2 SSE 1 2 1007.1 - 0.8 - - - - - - -
30/07:00am 24.7 CALM 0 3 1006.4 - 0.8 - - - - - - -
30/06:30am 24.8 S 3 5 1006.1 - 0.8 - - - - - - -
30/06:00am 25.0 SW 3 6 1005.9 - 0.8 Recent precip. - - - - - -
30/05:30am 25.8 W 3 6 1005.8 - 0.6 - - - - - - -
30/05:00am 26.9 WNW 7 11 1005.8 - 0.0 - - - - - - -
30/04:30am 27.4 WNW 12 17 1006.0 - 0.0 - - - - - - -
30/04:00am 27.9 WNW 12 17 1006.4 - 0.0 - - - - - - -
30/03:30am 28.0 WNW 8 12 1006.7 - 0.0 - - - - - - -
30/03:00am 27.3 WNW 9 11 1006.9 - 0.0 - - - - - - -
30/02:30am 27.0 NW 8 12 1006.8 - 0.0 - - - - - - -
30/02:00am 27.1 NW 12 15 1007.3 - 0.0 - - - - - - -
30/01:30am 27.9 NW 11 17 1007.6 - 0.0 - - - - - - -
30/01:00am 28.4 NNW 9 14 1008.3 - 0.0 - - - - - - -
30/12:30am 28.2 N 8 10 1008.4 - 0.0 - - - - - - -
30/12:00am 28.1 N 6 9 1008.7 - 0.0 - - - - - - -
 
Date/Time
CST
Temp

°C
Wind Pressure Rain
since 9am
mm
Weather Cloud Vis
km
Sea
Height
m
Swell
Dir
 
Speed
knots
Gust
knots
hPa Trend Height
m
Period
s
Dir
29/11:30pm 26.0 CALM 0 2 1008.7 - 0.0 - - - - - - -
29/11:00pm 26.0 SSE 2 3 1008.7 - 0.0 - - - - - - -
29/10:30pm 26.4 SE 2 4 1008.5 - 0.0 - - - - - - -
29/10:00pm 26.1 SE 2 3 1008.4 - 0.0 - - - - - - -
29/09:30pm 25.9 SSE 3 5 1008.3 - 0.0 - - - - - - -
29/09:00pm 26.1 SE 2 3 1007.9 - 0.0 - - - - - - -
29/08:30pm 25.9 S 2 3 1007.4 - 0.0 - - - - - - -
29/08:00pm 25.8 SSE 4 6 1007.0 - 0.0 - - - - - - -
29/07:30pm 25.6 S 4 7 1006.1 - 0.0 - - - - - - -
29/07:00pm 26.7 S 3 6 1006.0 - 0.0 - - - - - - -
29/06:30pm 27.2 SE 7 11 1005.9 - 0.0 - - - - - - -
29/06:00pm 29.6 W 3 5 1005.2 - 0.0 - - - - - - -
29/05:30pm 30.0 WNW 8 11 1004.7 - 0.0 - - - - - - -
29/05:00pm 30.4 WNW 8 11 1004.1 - 0.0 - - - - - - -
29/04:30pm 30.7 WNW 7 9 1004.1 - 0.0 - - - - - - -
29/04:00pm 31.3 W 5 8 1003.8 - 0.0 - - - - - - -
29/03:30pm 31.1 WNW 8 13 1004.2 - 0.0 - - - - - - -
29/03:00pm 31.0 WNW 8 11 1004.5 - 0.0 - - - - - - -
29/02:30pm 30.5 WNW 6 10 1004.9 - 0.0 - - - - - - -
29/02:00pm 30.5 WNW 7 10 1005.0 - 0.0 - - - - - - -
29/01:30pm 30.4 NW 5 9 1005.6 - 0.0 - - - - - - -
29/01:00pm 30.3 NW 3 5 1006.2 - 0.0 - - - - - - -
29/12:30pm 29.9 NNW 4 5 1006.6 - 0.0 - - - - - - -
29/12:00pm 30.2 NNW 4 7 1007.1 - 0.0 - - - - - - -
29/11:30am 29.7 NNW 4 7 1007.2 - 0.0 - - - - - - -
29/11:00am 29.4 N 4 6 1007.4 - 0.0 - - - - - - -
29/10:30am 29.2 N 4 6 1007.7 - 0.0 - - - - - - -
29/10:00am 28.9 N 3 4 1007.6 - 0.0 - - - - - - -
29/09:30am 28.9 NNW 2 3 1007.3 - 0.0 - - - - - - -
29/09:00am 28.4 NNW 2 4 1007.2 - 0.2 - - - - - - -
29/08:30am 28.0 NNW 6 9 1006.9 - 0.2 - - - - - - -
29/08:00am 26.8 NW 4 6 1006.7 - 0.2 - - - - - - -
29/07:30am 25.3 SSW 2 2 1006.1 - 0.2 - - - - - - -
29/07:00am 24.6 SSW 2 3 1006.1 - 0.2 - - - - - - -
29/06:30am 24.7 S 2 2 1005.8 - 0.2 - - - - - - -
29/06:00am 25.1 SSE 2 2 1005.9 - 0.2 - - - - - - -
29/05:30am 25.1 SE 3 6 1005.8 - 0.2 - - - - - - -
29/05:00am 25.1 SE 5 8 1005.7 - 0.2 - - - - - - -
29/04:30am 25.2 SSE 5 8 1005.6 - 0.2 - - - - - - -
29/04:00am 25.4 SSE 4 7 1005.7 - 0.2 - - - - - - -
29/03:30am 25.4 SSE 2 3 1005.7 - 0.2 - - - - - - -
29/03:00am 25.6 SE 3 4 1005.8 - 0.2 - - - - - - -
29/02:30am 25.4 SSE 3 5 1006.0 - 0.2 - - - - - - -
29/02:00am 25.5 S 2 3 1006.3 - 0.2 - - - - - - -
29/01:30am 25.7 SSE 2 3 1006.6 - 0.2 - - - - - - -
29/01:00am 25.7 ESE 2 3 1007.0 - 0.2 - - - - - - -
29/12:30am 25.2 SSE 2 3 1007.2 - 0.2 - - - - - - -

Other Formats:

Comma delimited format used in spreadsheet applications
http://www.bom.gov.au/fwo/IDD60701/IDD60701.99510.axf

JavaScript Object Notation format (JSON) in row-major order
http://www.bom.gov.au/fwo/IDD60701/IDD60701.99510.json